Terminal Aerodrome Forecast
Issued by NWS

Home | Current Version | Previous Version | Text Only | Print | Product List | Glossary On
Versions: 1 2 3 4 5 6 7 8 9 10 11 12 13 14 15 16 17 18
000
FTUS43 KJKL 010408 AAA
TAFSME
TAF AMD
KSME 010408Z 0104/0124 VRB03KT 6SM BR VCTS BKN050CB
      TEMPO 0104/0106 3SM +SHRA BR BKN020 OVC035
     FM010600 VRB03KT 3SM -SHRA VCTS OVC030CB
     FM010800 VRB03KT 5SM -SHRA OVC035
     FM011400 22007KT P6SM VCTS BKN050CB=

USA.gov is the U.S. government's official web portal to all federal, state and local government web resources and services.